sensor_id;sensor_type;location;lat;lon;timestamp;P1;durP1;ratioP1;P2;durP2;ratioP2
68234;SDS011;55052;52.056;5.296;2023-04-28T00:01:42;9.45;;;5.07;;
68234;SDS011;55052;52.056;5.296;2023-04-28T00:04:09;8.88;;;5.10;;
68234;SDS011;55052;52.056;5.296;2023-04-28T00:06:37;9.40;;;4.93;;
68234;SDS011;55052;52.056;5.296;2023-04-28T00:09:06;7.53;;;5.03;;
68234;SDS011;55052;52.056;5.296;2023-04-28T00:11:36;8.73;;;5.25;;
68234;SDS011;55052;52.056;5.296;2023-04-28T00:14:04;11.85;;;5.43;;
68234;SDS011;55052;52.056;5.296;2023-04-28T00:16:31;8.98;;;4.97;;
68234;SDS011;55052;52.056;5.296;2023-04-28T00:18:58;8.23;;;4.68;;
68234;SDS011;55052;52.056;5.296;2023-04-28T00:21:25;7.55;;;5.20;;
68234;SDS011;55052;52.056;5.296;2023-04-28T00:23:54;9.52;;;6.03;;
68234;SDS011;55052;52.056;5.296;2023-04-28T00:26:21;9.57;;;5.10;;
68234;SDS011;55052;52.056;5.296;2023-04-28T00:28:48;9.43;;;5.07;;
68234;SDS011;55052;52.056;5.296;2023-04-28T00:31:15;9.55;;;4.90;;
68234;SDS011;55052;52.056;5.296;2023-04-28T00:33:43;7.93;;;4.93;;
68234;SDS011;55052;52.056;5.296;2023-04-28T00:36:10;10.70;;;4.85;;
68234;SDS011;55052;52.056;5.296;2023-04-28T00:38:37;7.47;;;4.90;;
68234;SDS011;55052;52.056;5.296;2023-04-28T00:41:04;8.88;;;5.30;;
68234;SDS011;55052;52.056;5.296;2023-04-28T00:43:42;11.00;;;5.00;;
68234;SDS011;55052;52.056;5.296;2023-04-28T00:46:31;9.95;;;5.20;;
68234;SDS011;55052;52.056;5.296;2023-04-28T00:48:59;10.52;;;5.72;;
68234;SDS011;55052;52.056;5.296;2023-04-28T00:51:27;14.13;;;5.22;;
68234;SDS011;55052;52.056;5.296;2023-04-28T00:53:54;7.72;;;4.93;;
68234;SDS011;55052;52.056;5.296;2023-04-28T00:56:22;11.75;;;6.45;;
68234;SDS011;55052;52.056;5.296;2023-04-28T00:58:49;10.80;;;5.65;;
68234;SDS011;55052;52.056;5.296;2023-04-28T01:01:16;7.88;;;4.95;;
68234;SDS011;55052;52.056;5.296;2023-04-28T01:03:43;11.98;;;5.60;;
68234;SDS011;55052;52.056;5.296;2023-04-28T01:06:11;12.05;;;4.55;;
68234;SDS011;55052;52.056;5.296;2023-04-28T01:08:39;8.30;;;5.18;;
68234;SDS011;55052;52.056;5.296;2023-04-28T01:11:07;9.63;;;5.18;;
68234;SDS011;55052;52.056;5.296;2023-04-28T01:13:39;9.10;;;4.88;;
68234;SDS011;55052;52.056;5.296;2023-04-28T01:16:06;7.78;;;4.78;;
68234;SDS011;55052;52.056;5.296;2023-04-28T01:18:33;9.57;;;4.68;;
68234;SDS011;55052;52.056;5.296;2023-04-28T01:21:00;7.03;;;4.63;;
68234;SDS011;55052;52.056;5.296;2023-04-28T01:23:29;9.48;;;4.63;;
68234;SDS011;55052;52.056;5.296;2023-04-28T01:25:56;12.63;;;4.50;;
68234;SDS011;55052;52.056;5.296;2023-04-28T01:28:23;7.10;;;4.43;;
68234;SDS011;55052;52.056;5.296;2023-04-28T01:30:50;7.95;;;4.70;;
68234;SDS011;55052;52.056;5.296;2023-04-28T01:33:17;13.43;;;5.10;;
68234;SDS011;55052;52.056;5.296;2023-04-28T01:35:44;9.85;;;4.60;;
68234;SDS011;55052;52.056;5.296;2023-04-28T01:38:11;7.60;;;4.90;;
68234;SDS011;55052;52.056;5.296;2023-04-28T01:40:38;8.55;;;4.93;;
68234;SDS011;55052;52.056;5.296;2023-04-28T01:43:04;7.72;;;4.53;;
68234;SDS011;55052;52.056;5.296;2023-04-28T01:45:32;8.35;;;4.60;;
68234;SDS011;55052;52.056;5.296;2023-04-28T01:47:58;9.63;;;4.35;;
68234;SDS011;55052;52.056;5.296;2023-04-28T01:50:25;9.07;;;4.32;;
68234;SDS011;55052;52.056;5.296;2023-04-28T01:52:52;9.77;;;4.43;;
68234;SDS011;55052;52.056;5.296;2023-04-28T01:55:19;10.77;;;4.80;;
68234;SDS011;55052;52.056;5.296;2023-04-28T01:57:46;8.07;;;4.15;;
68234;SDS011;55052;52.056;5.296;2023-04-28T02:00:13;8.30;;;4.85;;
68234;SDS011;55052;52.056;5.296;2023-04-28T02:02:40;8.45;;;4.30;;
68234;SDS011;55052;52.056;5.296;2023-04-28T02:05:07;6.88;;;4.28;;
68234;SDS011;55052;52.056;5.296;2023-04-28T02:07:34;8.75;;;4.93;;
68234;SDS011;55052;52.056;5.296;2023-04-28T02:10:01;7.95;;;4.28;;
68234;SDS011;55052;52.056;5.296;2023-04-28T02:12:28;7.50;;;4.32;;
68234;SDS011;55052;52.056;5.296;2023-04-28T02:14:55;9.35;;;4.22;;
68234;SDS011;55052;52.056;5.296;2023-04-28T02:17:22;8.57;;;4.50;;
68234;SDS011;55052;52.056;5.296;2023-04-28T02:19:58;8.25;;;3.92;;
68234;SDS011;55052;52.056;5.296;2023-04-28T02:22:25;9.35;;;4.90;;
68234;SDS011;55052;52.056;5.296;2023-04-28T02:24:52;10.02;;;5.05;;
68234;SDS011;55052;52.056;5.296;2023-04-28T02:27:19;7.20;;;4.35;;
68234;SDS011;55052;52.056;5.296;2023-04-28T02:29:46;8.35;;;4.40;;
68234;SDS011;55052;52.056;5.296;2023-04-28T02:32:13;7.10;;;4.30;;
68234;SDS011;55052;52.056;5.296;2023-04-28T02:34:40;7.50;;;4.65;;
68234;SDS011;55052;52.056;5.296;2023-04-28T02:37:07;7.82;;;4.47;;
68234;SDS011;55052;52.056;5.296;2023-04-28T02:39:34;8.52;;;4.50;;
68234;SDS011;55052;52.056;5.296;2023-04-28T02:42:01;10.00;;;4.53;;
68234;SDS011;55052;52.056;5.296;2023-04-28T02:44:30;9.65;;;4.47;;
68234;SDS011;55052;52.056;5.296;2023-04-28T02:46:57;8.88;;;4.38;;
68234;SDS011;55052;52.056;5.296;2023-04-28T02:49:24;9.07;;;4.28;;
68234;SDS011;55052;52.056;5.296;2023-04-28T02:51:51;6.90;;;4.13;;
68234;SDS011;55052;52.056;5.296;2023-04-28T02:54:18;7.20;;;4.28;;
68234;SDS011;55052;52.056;5.296;2023-04-28T02:56:56;8.82;;;5.13;;
68234;SDS011;55052;52.056;5.296;2023-04-28T02:59:23;6.88;;;4.05;;
68234;SDS011;55052;52.056;5.296;2023-04-28T03:01:50;6.75;;;4.40;;
68234;SDS011;55052;52.056;5.296;2023-04-28T03:04:17;7.00;;;4.18;;
68234;SDS011;55052;52.056;5.296;2023-04-28T03:06:45;11.65;;;4.63;;
68234;SDS011;55052;52.056;5.296;2023-04-28T03:09:12;8.77;;;4.30;;
68234;SDS011;55052;52.056;5.296;2023-04-28T03:11:40;10.93;;;4.57;;
68234;SDS011;55052;52.056;5.296;2023-04-28T03:14:07;7.65;;;4.47;;
68234;SDS011;55052;52.056;5.296;2023-04-28T03:16:33;7.15;;;4.78;;
68234;SDS011;55052;52.056;5.296;2023-04-28T03:19:01;8.05;;;4.65;;
68234;SDS011;55052;52.056;5.296;2023-04-28T03:21:28;7.70;;;4.50;;
68234;SDS011;55052;52.056;5.296;2023-04-28T03:23:55;7.15;;;4.50;;
68234;SDS011;55052;52.056;5.296;2023-04-28T03:26:22;11.38;;;4.88;;
68234;SDS011;55052;52.056;5.296;2023-04-28T03:28:49;11.57;;;4.90;;
68234;SDS011;55052;52.056;5.296;2023-04-28T03:31:16;9.30;;;4.63;;
68234;SDS011;55052;52.056;5.296;2023-04-28T03:33:43;9.73;;;4.90;;
68234;SDS011;55052;52.056;5.296;2023-04-28T03:36:12;9.15;;;4.93;;
68234;SDS011;55052;52.056;5.296;2023-04-28T03:38:41;10.07;;;4.85;;
68234;SDS011;55052;52.056;5.296;2023-04-28T03:41:08;9.88;;;4.90;;
68234;SDS011;55052;52.056;5.296;2023-04-28T03:43:36;7.45;;;4.28;;
68234;SDS011;55052;52.056;5.296;2023-04-28T03:46:03;8.23;;;4.60;;
68234;SDS011;55052;52.056;5.296;2023-04-28T03:48:30;9.85;;;4.78;;
68234;SDS011;55052;52.056;5.296;2023-04-28T03:50:57;9.85;;;4.70;;
68234;SDS011;55052;52.056;5.296;2023-04-28T03:53:24;8.25;;;4.45;;
68234;SDS011;55052;52.056;5.296;2023-04-28T03:55:51;10.80;;;5.03;;
68234;SDS011;55052;52.056;5.296;2023-04-28T03:58:18;7.70;;;4.53;;
68234;SDS011;55052;52.056;5.296;2023-04-28T04:00:44;8.65;;;4.68;;
68234;SDS011;55052;52.056;5.296;2023-04-28T04:03:11;7.75;;;4.38;;
68234;SDS011;55052;52.056;5.296;2023-04-28T04:05:39;9.35;;;4.82;;
68234;SDS011;55052;52.056;5.296;2023-04-28T04:08:06;7.13;;;4.50;;
68234;SDS011;55052;52.056;5.296;2023-04-28T04:10:33;9.65;;;4.65;;
68234;SDS011;55052;52.056;5.296;2023-04-28T04:13:00;7.22;;;4.13;;
68234;SDS011;55052;52.056;5.296;2023-04-28T04:15:27;7.97;;;4.25;;
68234;SDS011;55052;52.056;5.296;2023-04-28T04:17:54;8.27;;;4.13;;
68234;SDS011;55052;52.056;5.296;2023-04-28T04:20:21;7.82;;;4.70;;
68234;SDS011;55052;52.056;5.296;2023-04-28T04:22:48;8.10;;;4.95;;
68234;SDS011;55052;52.056;5.296;2023-04-28T04:25:15;8.40;;;4.97;;
68234;SDS011;55052;52.056;5.296;2023-04-28T04:27:42;9.05;;;4.65;;
68234;SDS011;55052;52.056;5.296;2023-04-28T04:30:09;9.52;;;4.60;;
68234;SDS011;55052;52.056;5.296;2023-04-28T04:32:36;8.00;;;4.45;;
68234;SDS011;55052;52.056;5.296;2023-04-28T04:35:03;9.60;;;4.60;;
68234;SDS011;55052;52.056;5.296;2023-04-28T04:37:31;9.95;;;4.53;;
68234;SDS011;55052;52.056;5.296;2023-04-28T04:39:59;10.48;;;4.93;;
68234;SDS011;55052;52.056;5.296;2023-04-28T04:42:26;8.07;;;4.70;;
68234;SDS011;55052;52.056;5.296;2023-04-28T04:44:53;8.68;;;5.25;;
68234;SDS011;55052;52.056;5.296;2023-04-28T04:47:20;7.95;;;4.88;;
68234;SDS011;55052;52.056;5.296;2023-04-28T04:49:47;10.43;;;5.05;;
68234;SDS011;55052;52.056;5.296;2023-04-28T04:52:15;7.85;;;4.78;;
68234;SDS011;55052;52.056;5.296;2023-04-28T04:54:42;8.82;;;5.07;;
68234;SDS011;55052;52.056;5.296;2023-04-28T04:57:09;10.38;;;5.15;;
68234;SDS011;55052;52.056;5.296;2023-04-28T04:59:36;8.48;;;5.13;;
68234;SDS011;55052;52.056;5.296;2023-04-28T05:02:03;9.35;;;5.40;;
68234;SDS011;55052;52.056;5.296;2023-04-28T05:04:30;11.38;;;5.22;;
68234;SDS011;55052;52.056;5.296;2023-04-28T05:06:58;12.18;;;5.70;;
68234;SDS011;55052;52.056;5.296;2023-04-28T05:09:24;12.65;;;6.50;;
68234;SDS011;55052;52.056;5.296;2023-04-28T05:11:52;10.27;;;5.35;;
68234;SDS011;55052;52.056;5.296;2023-04-28T05:14:18;9.38;;;5.80;;
68234;SDS011;55052;52.056;5.296;2023-04-28T05:16:45;13.70;;;6.85;;
68234;SDS011;55052;52.056;5.296;2023-04-28T05:19:12;13.55;;;6.03;;
68234;SDS011;55052;52.056;5.296;2023-04-28T05:21:39;14.27;;;6.03;;
68234;SDS011;55052;52.056;5.296;2023-04-28T05:24:06;10.30;;;6.22;;
68234;SDS011;55052;52.056;5.296;2023-04-28T05:26:34;9.85;;;5.93;;
68234;SDS011;55052;52.056;5.296;2023-04-28T05:29:01;10.07;;;5.65;;
68234;SDS011;55052;52.056;5.296;2023-04-28T05:31:28;12.60;;;6.13;;
68234;SDS011;55052;52.056;5.296;2023-04-28T05:33:55;11.52;;;6.82;;
68234;SDS011;55052;52.056;5.296;2023-04-28T05:36:22;11.85;;;6.60;;
68234;SDS011;55052;52.056;5.296;2023-04-28T05:38:49;10.35;;;6.00;;
68234;SDS011;55052;52.056;5.296;2023-04-28T05:41:16;12.15;;;6.70;;
68234;SDS011;55052;52.056;5.296;2023-04-28T05:43:43;13.02;;;7.00;;
68234;SDS011;55052;52.056;5.296;2023-04-28T05:46:11;11.90;;;7.03;;
68234;SDS011;55052;52.056;5.296;2023-04-28T05:48:55;11.43;;;7.38;;
68234;SDS011;55052;52.056;5.296;2023-04-28T05:51:22;10.85;;;7.20;;
68234;SDS011;55052;52.056;5.296;2023-04-28T05:53:49;14.73;;;7.55;;
68234;SDS011;55052;52.056;5.296;2023-04-28T05:56:16;13.77;;;7.75;;
68234;SDS011;55052;52.056;5.296;2023-04-28T05:58:43;14.75;;;7.80;;
68234;SDS011;55052;52.056;5.296;2023-04-28T06:01:10;13.95;;;7.63;;
68234;SDS011;55052;52.056;5.296;2023-04-28T06:03:37;12.23;;;7.82;;
68234;SDS011;55052;52.056;5.296;2023-04-28T06:06:08;16.58;;;8.05;;
68234;SDS011;55052;52.056;5.296;2023-04-28T06:08:36;13.60;;;7.65;;
68234;SDS011;55052;52.056;5.296;2023-04-28T06:11:03;13.95;;;8.45;;
68234;SDS011;55052;52.056;5.296;2023-04-28T06:13:31;12.95;;;7.38;;
68234;SDS011;55052;52.056;5.296;2023-04-28T06:15:58;16.92;;;8.20;;
68234;SDS011;55052;52.056;5.296;2023-04-28T06:18:25;14.90;;;8.27;;
68234;SDS011;55052;52.056;5.296;2023-04-28T06:20:52;15.00;;;8.00;;
68234;SDS011;55052;52.056;5.296;2023-04-28T06:23:19;12.65;;;8.18;;
68234;SDS011;55052;52.056;5.296;2023-04-28T06:25:46;14.43;;;8.32;;
68234;SDS011;55052;52.056;5.296;2023-04-28T06:28:13;15.63;;;8.80;;
68234;SDS011;55052;52.056;5.296;2023-04-28T06:30:40;15.07;;;8.25;;
68234;SDS011;55052;52.056;5.296;2023-04-28T06:33:07;13.63;;;8.73;;
68234;SDS011;55052;52.056;5.296;2023-04-28T06:35:34;14.52;;;9.27;;
68234;SDS011;55052;52.056;5.296;2023-04-28T06:38:04;17.77;;;9.23;;
68234;SDS011;55052;52.056;5.296;2023-04-28T06:40:31;14.05;;;9.23;;
68234;SDS011;55052;52.056;5.296;2023-04-28T06:42:58;13.82;;;8.75;;
68234;SDS011;55052;52.056;5.296;2023-04-28T06:45:25;15.05;;;9.32;;
68234;SDS011;55052;52.056;5.296;2023-04-28T06:47:52;16.48;;;9.40;;
68234;SDS011;55052;52.056;5.296;2023-04-28T06:50:21;15.90;;;9.65;;
68234;SDS011;55052;52.056;5.296;2023-04-28T06:52:49;15.18;;;9.25;;
68234;SDS011;55052;52.056;5.296;2023-04-28T06:55:16;14.73;;;9.20;;
68234;SDS011;55052;52.056;5.296;2023-04-28T06:57:43;13.40;;;9.85;;
68234;SDS011;55052;52.056;5.296;2023-04-28T07:00:10;12.82;;;8.98;;
68234;SDS011;55052;52.056;5.296;2023-04-28T07:02:37;16.70;;;10.13;;
68234;SDS011;55052;52.056;5.296;2023-04-28T07:05:05;15.30;;;9.88;;
68234;SDS011;55052;52.056;5.296;2023-04-28T07:07:32;16.23;;;10.32;;
68234;SDS011;55052;52.056;5.296;2023-04-28T07:09:59;14.20;;;9.82;;
68234;SDS011;55052;52.056;5.296;2023-04-28T07:12:26;14.55;;;9.88;;
68234;SDS011;55052;52.056;5.296;2023-04-28T07:14:53;15.93;;;9.88;;
68234;SDS011;55052;52.056;5.296;2023-04-28T07:17:21;17.33;;;10.35;;
68234;SDS011;55052;52.056;5.296;2023-04-28T07:19:48;17.08;;;10.43;;
68234;SDS011;55052;52.056;5.296;2023-04-28T07:22:17;15.50;;;10.85;;
68234;SDS011;55052;52.056;5.296;2023-04-28T07:24:44;18.45;;;11.40;;
68234;SDS011;55052;52.056;5.296;2023-04-28T07:27:11;16.33;;;10.55;;
68234;SDS011;55052;52.056;5.296;2023-04-28T07:29:38;15.63;;;10.23;;
68234;SDS011;55052;52.056;5.296;2023-04-28T07:32:05;17.70;;;10.18;;
68234;SDS011;55052;52.056;5.296;2023-04-28T07:34:36;17.80;;;10.73;;
68234;SDS011;55052;52.056;5.296;2023-04-28T07:37:04;17.45;;;11.32;;
68234;SDS011;55052;52.056;5.296;2023-04-28T07:39:33;17.47;;;10.73;;
68234;SDS011;55052;52.056;5.296;2023-04-28T07:42:00;15.82;;;10.93;;
68234;SDS011;55052;52.056;5.296;2023-04-28T07:44:28;17.50;;;11.15;;
68234;SDS011;55052;52.056;5.296;2023-04-28T07:46:56;18.45;;;11.90;;
68234;SDS011;55052;52.056;5.296;2023-04-28T07:49:25;18.15;;;11.32;;
68234;SDS011;55052;52.056;5.296;2023-04-28T07:51:56;22.35;;;12.30;;
68234;SDS011;55052;52.056;5.296;2023-04-28T07:54:23;14.00;;;9.93;;
68234;SDS011;55052;52.056;5.296;2023-04-28T07:56:50;17.00;;;11.05;;
68234;SDS011;55052;52.056;5.296;2023-04-28T07:59:18;17.50;;;10.85;;
68234;SDS011;55052;52.056;5.296;2023-04-28T08:01:45;17.45;;;11.52;;
68234;SDS011;55052;52.056;5.296;2023-04-28T08:04:12;17.75;;;11.45;;
68234;SDS011;55052;52.056;5.296;2023-04-28T08:06:40;20.02;;;10.75;;
68234;SDS011;55052;52.056;5.296;2023-04-28T08:09:07;17.58;;;12.52;;
68234;SDS011;55052;52.056;5.296;2023-04-28T08:11:35;17.17;;;11.45;;
68234;SDS011;55052;52.056;5.296;2023-04-28T08:14:02;17.27;;;11.27;;
68234;SDS011;55052;52.056;5.296;2023-04-28T08:16:29;16.98;;;12.23;;
68234;SDS011;55052;52.056;5.296;2023-04-28T08:18:57;20.60;;;12.05;;
68234;SDS011;55052;52.056;5.296;2023-04-28T08:21:25;16.90;;;11.95;;
68234;SDS011;55052;52.056;5.296;2023-04-28T08:23:52;21.27;;;12.40;;
68234;SDS011;55052;52.056;5.296;2023-04-28T08:26:19;18.60;;;12.52;;
68234;SDS011;55052;52.056;5.296;2023-04-28T08:28:46;19.00;;;12.57;;
68234;SDS011;55052;52.056;5.296;2023-04-28T08:31:13;22.48;;;13.85;;
68234;SDS011;55052;52.056;5.296;2023-04-28T08:33:40;22.42;;;14.05;;
68234;SDS011;55052;52.056;5.296;2023-04-28T08:36:13;21.90;;;14.50;;
68234;SDS011;55052;52.056;5.296;2023-04-28T08:38:40;20.05;;;13.50;;
68234;SDS011;55052;52.056;5.296;2023-04-28T08:41:08;20.30;;;13.52;;
68234;SDS011;55052;52.056;5.296;2023-04-28T08:43:35;24.05;;;15.38;;
68234;SDS011;55052;52.056;5.296;2023-04-28T08:46:05;21.02;;;13.88;;
68234;SDS011;55052;52.056;5.296;2023-04-28T08:48:38;18.20;;;13.90;;
68234;SDS011;55052;52.056;5.296;2023-04-28T08:51:07;20.52;;;14.27;;
68234;SDS011;55052;52.056;5.296;2023-04-28T08:53:37;25.25;;;15.88;;
68234;SDS011;55052;52.056;5.296;2023-04-28T08:56:25;21.13;;;14.68;;
68234;SDS011;55052;52.056;5.296;2023-04-28T08:58:57;22.98;;;14.45;;
68234;SDS011;55052;52.056;5.296;2023-04-28T09:01:29;18.27;;;13.38;;
68234;SDS011;55052;52.056;5.296;2023-04-28T09:03:59;19.98;;;14.40;;
68234;SDS011;55052;52.056;5.296;2023-04-28T09:06:35;20.73;;;14.32;;
68234;SDS011;55052;52.056;5.296;2023-04-28T09:09:17;18.10;;;12.90;;
68234;SDS011;55052;52.056;5.296;2023-04-28T09:11:54;18.45;;;13.52;;
68234;SDS011;55052;52.056;5.296;2023-04-28T09:14:23;17.13;;;12.48;;
68234;SDS011;55052;52.056;5.296;2023-04-28T09:16:51;17.00;;;12.98;;
68234;SDS011;55052;52.056;5.296;2023-04-28T09:19:19;16.83;;;12.10;;
68234;SDS011;55052;52.056;5.296;2023-04-28T09:21:47;18.27;;;13.75;;
68234;SDS011;55052;52.056;5.296;2023-04-28T09:24:24;17.65;;;12.48;;
68234;SDS011;55052;52.056;5.296;2023-04-28T09:27:03;17.02;;;11.65;;
68234;SDS011;55052;52.056;5.296;2023-04-28T09:29:31;16.85;;;13.13;;
68234;SDS011;55052;52.056;5.296;2023-04-28T09:32:17;18.75;;;13.30;;
68234;SDS011;55052;52.056;5.296;2023-04-28T09:34:46;17.58;;;13.02;;
68234;SDS011;55052;52.056;5.296;2023-04-28T09:37:18;16.23;;;12.52;;
68234;SDS011;55052;52.056;5.296;2023-04-28T09:39:48;14.77;;;11.20;;
68234;SDS011;55052;52.056;5.296;2023-04-28T09:45:09;15.52;;;10.68;;
68234;SDS011;55052;52.056;5.296;2023-04-28T09:47:40;15.32;;;11.00;;
68234;SDS011;55052;52.056;5.296;2023-04-28T09:50:09;14.20;;;10.65;;
68234;SDS011;55052;52.056;5.296;2023-04-28T09:52:40;16.10;;;11.35;;
68234;SDS011;55052;52.056;5.296;2023-04-28T09:55:11;13.52;;;10.43;;
68234;SDS011;55052;52.056;5.296;2023-04-28T09:57:38;12.57;;;9.77;;
68234;SDS011;55052;52.056;5.296;2023-04-28T10:00:06;12.95;;;9.82;;
68234;SDS011;55052;52.056;5.296;2023-04-28T10:02:35;13.70;;;10.15;;
68234;SDS011;55052;52.056;5.296;2023-04-28T10:05:06;12.48;;;10.15;;
68234;SDS011;55052;52.056;5.296;2023-04-28T10:07:38;14.30;;;10.50;;
68234;SDS011;55052;52.056;5.296;2023-04-28T10:10:06;15.13;;;10.07;;
68234;SDS011;55052;52.056;5.296;2023-04-28T10:12:34;15.88;;;10.10;;
68234;SDS011;55052;52.056;5.296;2023-04-28T10:15:04;12.65;;;9.90;;
68234;SDS011;55052;52.056;5.296;2023-04-28T10:17:32;12.07;;;10.02;;
68234;SDS011;55052;52.056;5.296;2023-04-28T10:20:02;15.52;;;10.40;;
68234;SDS011;55052;52.056;5.296;2023-04-28T10:25:27;14.98;;;10.82;;
68234;SDS011;55052;52.056;5.296;2023-04-28T10:27:58;13.55;;;10.38;;
68234;SDS011;55052;52.056;5.296;2023-04-28T10:30:26;14.25;;;10.85;;
68234;SDS011;55052;52.056;5.296;2023-04-28T10:35:46;16.20;;;12.15;;
68234;SDS011;55052;52.056;5.296;2023-04-28T10:38:17;16.33;;;11.80;;
68234;SDS011;55052;52.056;5.296;2023-04-28T10:40:46;17.08;;;12.00;;
68234;SDS011;55052;52.056;5.296;2023-04-28T10:56:20;19.17;;;14.40;;
68234;SDS011;55052;52.056;5.296;2023-04-28T10:58:50;20.65;;;14.05;;
68234;SDS011;55052;52.056;5.296;2023-04-28T11:03:55;19.83;;;14.05;;
68234;SDS011;55052;52.056;5.296;2023-04-28T11:06:30;19.13;;;13.52;;
68234;SDS011;55052;52.056;5.296;2023-04-28T11:11:38;18.70;;;12.82;;
68234;SDS011;55052;52.056;5.296;2023-04-28T11:16:54;19.00;;;13.52;;
68234;SDS011;55052;52.056;5.296;2023-04-28T11:19:26;18.70;;;11.95;;
68234;SDS011;55052;52.056;5.296;2023-04-28T11:21:55;18.40;;;12.73;;
68234;SDS011;55052;52.056;5.296;2023-04-28T11:24:24;16.67;;;10.82;;
68234;SDS011;55052;52.056;5.296;2023-04-28T11:26:55;15.40;;;10.45;;
68234;SDS011;55052;52.056;5.296;2023-04-28T11:29:36;13.98;;;8.77;;
68234;SDS011;55052;52.056;5.296;2023-04-28T11:32:05;12.05;;;7.75;;
68234;SDS011;55052;52.056;5.296;2023-04-28T11:34:34;12.23;;;7.72;;
68234;SDS011;55052;52.056;5.296;2023-04-28T11:37:01;11.68;;;7.60;;
68234;SDS011;55052;52.056;5.296;2023-04-28T11:39:29;14.57;;;7.63;;
68234;SDS011;55052;52.056;5.296;2023-04-28T11:41:58;10.77;;;6.97;;
68234;SDS011;55052;52.056;5.296;2023-04-28T11:44:28;12.95;;;7.60;;
68234;SDS011;55052;52.056;5.296;2023-04-28T11:46:57;13.05;;;7.82;;
68234;SDS011;55052;52.056;5.296;2023-04-28T11:51:54;13.55;;;7.30;;
68234;SDS011;55052;52.056;5.296;2023-04-28T11:54:23;13.52;;;7.70;;
68234;SDS011;55052;52.056;5.296;2023-04-28T11:56:52;10.95;;;7.15;;
68234;SDS011;55052;52.056;5.296;2023-04-28T11:59:23;10.55;;;6.28;;
68234;SDS011;55052;52.056;5.296;2023-04-28T12:01:56;12.15;;;6.45;;
68234;SDS011;55052;52.056;5.296;2023-04-28T12:04:25;12.38;;;6.18;;
68234;SDS011;55052;52.056;5.296;2023-04-28T12:07:10;11.48;;;5.65;;
68234;SDS011;55052;52.056;5.296;2023-04-28T12:09:42;12.60;;;6.07;;
68234;SDS011;55052;52.056;5.296;2023-04-28T12:12:11;10.27;;;6.05;;
68234;SDS011;55052;52.056;5.296;2023-04-28T12:17:31;9.25;;;5.32;;
68234;SDS011;55052;52.056;5.296;2023-04-28T12:19:59;9.38;;;4.97;;
68234;SDS011;55052;52.056;5.296;2023-04-28T12:22:28;7.72;;;4.80;;
68234;SDS011;55052;52.056;5.296;2023-04-28T12:27:33;8.27;;;3.70;;
68234;SDS011;55052;52.056;5.296;2023-04-28T12:32:46;5.47;;;3.08;;
68234;SDS011;55052;52.056;5.296;2023-04-28T12:35:13;4.28;;;2.50;;
68234;SDS011;55052;52.056;5.296;2023-04-28T12:37:41;6.70;;;2.50;;
68234;SDS011;55052;52.056;5.296;2023-04-28T12:42:39;6.28;;;2.90;;
68234;SDS011;55052;52.056;5.296;2023-04-28T12:45:06;6.25;;;3.00;;
68234;SDS011;55052;52.056;5.296;2023-04-28T12:47:36;5.28;;;2.97;;
68234;SDS011;55052;52.056;5.296;2023-04-28T12:50:05;5.78;;;2.90;;
68234;SDS011;55052;52.056;5.296;2023-04-28T12:52:32;4.63;;;2.97;;
68234;SDS011;55052;52.056;5.296;2023-04-28T12:55:01;3.97;;;2.60;;
68234;SDS011;55052;52.056;5.296;2023-04-28T12:59:57;5.07;;;2.50;;
68234;SDS011;55052;52.056;5.296;2023-04-28T13:02:24;4.13;;;2.40;;
68234;SDS011;55052;52.056;5.296;2023-04-28T13:04:52;4.47;;;3.00;;
68234;SDS011;55052;52.056;5.296;2023-04-28T13:07:19;6.75;;;3.00;;
68234;SDS011;55052;52.056;5.296;2023-04-28T13:09:47;4.72;;;3.08;;
68234;SDS011;55052;52.056;5.296;2023-04-28T13:12:14;6.65;;;3.47;;
68234;SDS011;55052;52.056;5.296;2023-04-28T13:14:40;5.85;;;3.80;;
68234;SDS011;55052;52.056;5.296;2023-04-28T13:17:07;8.82;;;3.95;;
68234;SDS011;55052;52.056;5.296;2023-04-28T13:19:35;5.68;;;3.80;;
68234;SDS011;55052;52.056;5.296;2023-04-28T13:22:02;6.50;;;4.20;;
68234;SDS011;55052;52.056;5.296;2023-04-28T13:24:31;5.75;;;4.07;;
68234;SDS011;55052;52.056;5.296;2023-04-28T13:27:01;5.95;;;4.22;;
68234;SDS011;55052;52.056;5.296;2023-04-28T13:29:29;5.72;;;4.47;;
68234;SDS011;55052;52.056;5.296;2023-04-28T13:31:56;6.38;;;4.90;;
68234;SDS011;55052;52.056;5.296;2023-04-28T13:34:23;6.30;;;4.72;;
68234;SDS011;55052;52.056;5.296;2023-04-28T13:36:50;5.40;;;4.28;;
68234;SDS011;55052;52.056;5.296;2023-04-28T13:39:20;6.10;;;4.75;;
68234;SDS011;55052;52.056;5.296;2023-04-28T13:41:47;6.13;;;4.70;;
68234;SDS011;55052;52.056;5.296;2023-04-28T13:44:14;6.15;;;4.32;;
68234;SDS011;55052;52.056;5.296;2023-04-28T13:46:42;5.80;;;4.30;;
68234;SDS011;55052;52.056;5.296;2023-04-28T13:49:09;5.57;;;4.45;;
68234;SDS011;55052;52.056;5.296;2023-04-28T13:51:36;5.95;;;4.38;;
68234;SDS011;55052;52.056;5.296;2023-04-28T13:54:04;6.35;;;4.57;;
68234;SDS011;55052;52.056;5.296;2023-04-28T13:56:34;5.18;;;4.28;;
68234;SDS011;55052;52.056;5.296;2023-04-28T13:59:01;5.90;;;4.72;;
68234;SDS011;55052;52.056;5.296;2023-04-28T14:01:29;6.25;;;5.00;;
68234;SDS011;55052;52.056;5.296;2023-04-28T14:03:56;5.80;;;4.63;;
68234;SDS011;55052;52.056;5.296;2023-04-28T14:06:23;6.95;;;5.00;;
68234;SDS011;55052;52.056;5.296;2023-04-28T14:08:51;6.75;;;5.13;;
68234;SDS011;55052;52.056;5.296;2023-04-28T14:11:18;5.93;;;4.32;;
68234;SDS011;55052;52.056;5.296;2023-04-28T14:13:45;6.68;;;5.18;;
68234;SDS011;55052;52.056;5.296;2023-04-28T14:16:12;9.48;;;5.10;;
68234;SDS011;55052;52.056;5.296;2023-04-28T14:18:39;7.35;;;5.47;;
68234;SDS011;55052;52.056;5.296;2023-04-28T14:21:06;8.45;;;5.07;;
68234;SDS011;55052;52.056;5.296;2023-04-28T14:23:33;7.50;;;5.22;;
68234;SDS011;55052;52.056;5.296;2023-04-28T14:26:01;7.25;;;4.75;;
68234;SDS011;55052;52.056;5.296;2023-04-28T14:28:27;7.60;;;4.90;;
68234;SDS011;55052;52.056;5.296;2023-04-28T14:30:54;7.50;;;5.10;;
68234;SDS011;55052;52.056;5.296;2023-04-28T14:33:21;7.60;;;5.15;;
68234;SDS011;55052;52.056;5.296;2023-04-28T14:35:49;9.32;;;5.50;;
68234;SDS011;55052;52.056;5.296;2023-04-28T14:38:16;8.60;;;5.78;;
68234;SDS011;55052;52.056;5.296;2023-04-28T14:40:43;10.80;;;6.38;;
68234;SDS011;55052;52.056;5.296;2023-04-28T14:43:10;10.57;;;6.32;;
68234;SDS011;55052;52.056;5.296;2023-04-28T14:45:37;9.75;;;6.70;;
68234;SDS011;55052;52.056;5.296;2023-04-28T14:48:04;9.88;;;6.47;;
68234;SDS011;55052;52.056;5.296;2023-04-28T14:50:33;12.88;;;7.80;;
68234;SDS011;55052;52.056;5.296;2023-04-28T14:53:00;11.80;;;8.05;;
68234;SDS011;55052;52.056;5.296;2023-04-28T14:55:32;14.00;;;8.40;;
68234;SDS011;55052;52.056;5.296;2023-04-28T14:57:59;14.45;;;9.30;;
68234;SDS011;55052;52.056;5.296;2023-04-28T15:00:26;14.13;;;9.68;;
68234;SDS011;55052;52.056;5.296;2023-04-28T15:02:52;15.30;;;10.10;;
68234;SDS011;55052;52.056;5.296;2023-04-28T15:05:20;15.52;;;10.10;;
68234;SDS011;55052;52.056;5.296;2023-04-28T15:07:47;15.57;;;9.63;;
68234;SDS011;55052;52.056;5.296;2023-04-28T15:10:14;15.90;;;10.77;;
68234;SDS011;55052;52.056;5.296;2023-04-28T15:12:41;19.63;;;11.15;;
68234;SDS011;55052;52.056;5.296;2023-04-28T15:15:08;17.65;;;11.15;;
68234;SDS011;55052;52.056;5.296;2023-04-28T15:17:35;18.02;;;10.88;;
68234;SDS011;55052;52.056;5.296;2023-04-28T15:20:03;18.33;;;11.73;;
68234;SDS011;55052;52.056;5.296;2023-04-28T15:22:30;17.98;;;11.32;;
68234;SDS011;55052;52.056;5.296;2023-04-28T15:24:57;18.52;;;11.35;;
68234;SDS011;55052;52.056;5.296;2023-04-28T15:27:24;15.82;;;10.90;;